createdAt,value
2022-12-17T00:01:48.050Z,-3276.60
2022-12-17T00:04:33.526Z,-3276.60
2022-12-17T00:07:19.071Z,-3276.60
2022-12-17T00:10:04.703Z,-3276.60
2022-12-17T00:12:50.274Z,-3276.60
2022-12-17T00:15:37.166Z,-3276.60
2022-12-17T00:18:23.840Z,-3276.60
2022-12-17T00:21:13.254Z,-3276.60
2022-12-17T00:23:58.810Z,-3276.60
2022-12-17T00:26:44.226Z,-3276.60
2022-12-17T00:29:29.608Z,-3276.50
2022-12-17T00:32:16.711Z,-3276.50
2022-12-17T00:35:02.316Z,-3276.60
2022-12-17T00:37:47.977Z,-3276.60
2022-12-17T00:40:33.662Z,-3276.60
2022-12-17T00:43:19.786Z,-3276.60
2022-12-17T00:46:05.038Z,-3276.60
2022-12-17T00:48:52.263Z,-3276.60
2022-12-17T00:51:38.296Z,-3276.60
2022-12-17T00:54:23.776Z,-3276.50
2022-12-17T00:57:09.842Z,-3276.50
2022-12-17T00:59:57.512Z,-3276.50
2022-12-17T01:02:43.231Z,-3276.50
2022-12-17T01:05:30.438Z,-3276.60
2022-12-17T01:08:16.598Z,-3276.60
2022-12-17T01:11:02.156Z,-3276.50
2022-12-17T01:13:49.804Z,-3276.50
2022-12-17T01:16:35.831Z,-3276.60
2022-12-17T01:19:21.575Z,-3276.60
2022-12-17T01:22:08.295Z,-3276.60
2022-12-17T01:24:53.723Z,-3276.60
2022-12-17T01:27:41.808Z,-3276.60
2022-12-17T01:30:27.768Z,-3276.60
2022-12-17T01:33:19.665Z,-3276.60
2022-12-17T01:36:05.717Z,-3276.60
2022-12-17T01:38:52.534Z,-3276.60
2022-12-17T01:41:39.153Z,-3276.60
2022-12-17T01:45:03.246Z,-3276.60
2022-12-17T01:47:51.268Z,-3276.60
2022-12-17T01:50:39.755Z,-3276.60
2022-12-17T01:53:26.728Z,-3276.50
2022-12-17T01:56:15.681Z,-3276.50
2022-12-17T01:59:01.370Z,-3276.60
2022-12-17T02:01:47.113Z,-3276.60
2022-12-17T02:04:32.755Z,-3276.70
2022-12-17T02:07:31.532Z,-3276.70
2022-12-17T02:10:27.304Z,-3276.70
2022-12-17T02:13:21.854Z,-3276.70
2022-12-17T02:16:12.444Z,-3276.60
2022-12-17T02:19:03.254Z,-3276.60
2022-12-17T02:21:49.666Z,-3276.60
2022-12-17T02:24:45.613Z,-3276.50
2022-12-17T02:27:33.399Z,-3276.50
2022-12-17T02:30:34.121Z,-3276.60
2022-12-17T02:33:34.860Z,-3276.60
2022-12-17T02:36:34.385Z,-3276.50
2022-12-17T02:39:20.013Z,-3276.50
2022-12-17T02:42:08.641Z,-3276.50
2022-12-17T02:44:57.743Z,-3276.50
2022-12-17T02:47:44.340Z,-3276.50
2022-12-17T02:50:31.099Z,-3276.50
2022-12-17T02:53:18.758Z,-3276.50
2022-12-17T02:56:04.199Z,-3276.50
2022-12-17T02:58:49.678Z,-3276.50
2022-12-17T03:01:36.542Z,-3276.50
2022-12-17T03:04:21.971Z,-3276.50
2022-12-17T03:07:07.972Z,-3276.50
2022-12-17T03:09:53.563Z,-3276.50
2022-12-17T03:12:38.976Z,-3276.40
2022-12-17T03:15:25.457Z,-3276.40
2022-12-17T03:18:14.550Z,-3276.50
2022-12-17T03:21:00.124Z,-3276.50
2022-12-17T03:23:45.737Z,-3276.50
2022-12-17T03:26:31.316Z,-3276.50
2022-12-17T03:29:16.835Z,-3276.40
2022-12-17T03:32:09.798Z,-3276.40
2022-12-17T03:34:56.610Z,-3276.30
2022-12-17T03:37:42.099Z,-3276.30
2022-12-17T03:40:29.073Z,-3276.30
2022-12-17T03:43:14.359Z,-3276.30
2022-12-17T03:45:59.940Z,-3276.30
2022-12-17T03:48:45.444Z,-3276.40
2022-12-17T03:51:35.355Z,-3276.30
2022-12-17T03:54:21.094Z,-3276.30
2022-12-17T03:57:09.543Z,-3276.30
2022-12-17T03:59:57.276Z,-3276.30
2022-12-17T04:02:51.224Z,-3276.40
2022-12-17T04:05:36.619Z,-3276.40
2022-12-17T04:08:23.775Z,-3276.30
2022-12-17T04:11:09.349Z,-3276.30
2022-12-17T04:13:54.790Z,-3276.30
2022-12-17T04:16:40.174Z,-3276.30
2022-12-17T04:19:25.608Z,-3276.20
2022-12-17T04:22:11.205Z,-3276.20
2022-12-17T04:24:58.402Z,-3276.20
2022-12-17T04:27:43.623Z,-3276.20
2022-12-17T04:30:29.967Z,-3276.20
2022-12-17T04:33:15.613Z,-3276.20
2022-12-17T04:36:01.065Z,-3276.20
2022-12-17T04:38:46.639Z,-3276.20
2022-12-17T04:41:33.425Z,-3276.20
2022-12-17T04:44:18.735Z,-3276.20
2022-12-17T04:47:04.336Z,-3276.20
2022-12-17T04:49:49.730Z,-3276.20
2022-12-17T04:52:36.433Z,-3276.20
2022-12-17T04:55:22.045Z,-3276.20
2022-12-17T04:58:08.783Z,-3276.10
2022-12-17T05:00:54.636Z,-3276.10
2022-12-17T05:03:40.846Z,-3276.10
2022-12-17T05:06:27.542Z,-3276.10
2022-12-17T05:09:13.122Z,-3276.10
2022-12-17T05:11:58.644Z,-3276.10
2022-12-17T05:14:45.259Z,-3276.10
2022-12-17T05:17:30.798Z,-3276.10
2022-12-17T05:20:16.473Z,-3276.10
2022-12-17T05:23:01.961Z,-3276.10
2022-12-17T05:25:47.949Z,-3276.10
2022-12-17T05:28:33.456Z,-3276.00
2022-12-17T05:31:20.220Z,-3276.00
2022-12-17T05:34:05.600Z,-3276.00
2022-12-17T05:36:51.207Z,-3276.00
2022-12-17T05:39:36.481Z,-3276.00
2022-12-17T05:42:21.960Z,-3276.00
2022-12-17T05:45:27.396Z,-3276.00
2022-12-17T05:48:17.083Z,-3276.00
2022-12-17T05:51:07.083Z,-3276.00
2022-12-17T05:53:52.643Z,-3276.00
2022-12-17T05:56:38.257Z,-3276.10
2022-12-17T05:59:23.741Z,-3276.10
2022-12-17T06:02:09.052Z,-3276.10
2022-12-17T06:05:01.854Z,-3276.10
2022-12-17T06:07:47.938Z,-3276.10
2022-12-17T06:10:33.757Z,-3276.10
2022-12-17T06:13:19.320Z,-3276.10
2022-12-17T06:16:08.088Z,-3276.10
2022-12-17T06:18:53.931Z,-3276.10
2022-12-17T06:21:41.085Z,-3276.00
2022-12-17T06:24:26.833Z,-3276.00
2022-12-17T06:27:12.395Z,-3276.00
2022-12-17T06:29:58.067Z,-3276.00
2022-12-17T06:32:43.583Z,-3276.00
2022-12-17T06:35:29.301Z,-3276.10
2022-12-17T06:38:20.264Z,-3276.10
2022-12-17T06:41:05.603Z,-3276.10
2022-12-17T06:43:51.229Z,-3276.10
2022-12-17T06:46:36.788Z,-3276.10
2022-12-17T06:49:22.209Z,-3276.10
2022-12-17T06:52:07.519Z,-3276.10
2022-12-17T06:54:54.389Z,-3276.10
2022-12-17T06:57:41.830Z,-3276.10
2022-12-17T07:00:30.862Z,-3276.10
2022-12-17T07:03:17.346Z,-3276.20
2022-12-17T07:06:02.999Z,-3276.20
2022-12-17T07:08:48.608Z,-3276.20
2022-12-17T07:11:35.310Z,-3276.10
2022-12-17T07:14:20.811Z,-3276.10
2022-12-17T07:17:06.522Z,-3276.10
2022-12-17T07:19:52.011Z,-3276.10
2022-12-17T07:22:37.608Z,-3276.10
2022-12-17T07:25:23.672Z,-3276.10
2022-12-17T07:28:13.843Z,-3276.10
2022-12-17T07:30:59.173Z,-3276.10
2022-12-17T07:33:55.830Z,-3276.10
2022-12-17T07:36:43.037Z,-3276.10
2022-12-17T07:39:28.589Z,-3276.10
2022-12-17T07:42:13.928Z,-3276.10
2022-12-17T07:45:00.822Z,-3276.10
2022-12-17T07:47:46.382Z,-3276.20
2022-12-17T07:50:32.362Z,-3276.20
2022-12-17T07:53:18.919Z,-3276.20
2022-12-17T07:56:04.560Z,-3276.10
2022-12-17T07:58:49.917Z,-3276.20
2022-12-17T08:01:37.301Z,-3276.10
2022-12-17T08:04:23.061Z,-3276.10
2022-12-17T08:07:13.893Z,-3276.10
2022-12-17T08:10:00.060Z,-3276.10
2022-12-17T08:12:45.755Z,-3276.00
2022-12-17T08:15:30.977Z,-3276.10
2022-12-17T08:18:26.133Z,-3276.00
2022-12-17T08:21:12.635Z,-3276.10
2022-12-17T08:23:58.221Z,-3276.00
2022-12-17T08:26:47.923Z,-3276.00
2022-12-17T08:29:34.205Z,-3276.00
2022-12-17T08:32:19.584Z,-3276.00
2022-12-17T08:35:06.110Z,-3276.00
2022-12-17T08:37:51.508Z,-3276.00
2022-12-17T08:40:37.044Z,-3276.10
2022-12-17T08:43:22.431Z,-3276.10
2022-12-17T08:46:09.180Z,-3276.10
2022-12-17T08:48:56.933Z,-3276.10
2022-12-17T08:51:50.483Z,-3276.10
2022-12-17T08:54:36.026Z,-3276.10
2022-12-17T08:57:31.772Z,-3276.10
2022-12-17T09:00:18.571Z,-3276.10
2022-12-17T09:03:04.342Z,-3276.10
2022-12-17T09:05:49.660Z,-3276.10
2022-12-17T09:08:37.270Z,-3276.10
2022-12-17T09:11:27.401Z,-3276.10
2022-12-17T09:14:12.962Z,-3276.20
2022-12-17T09:16:58.507Z,-3276.20
2022-12-17T09:19:43.872Z,-3276.30
2022-12-17T09:22:29.381Z,-3276.30
2022-12-17T09:25:20.479Z,-3276.30
2022-12-17T09:28:05.868Z,-3276.40
2022-12-17T09:30:51.522Z,-3276.40
2022-12-17T09:33:37.643Z,-3276.40
2022-12-17T09:36:24.702Z,-3276.40
2022-12-17T09:39:10.310Z,-3276.40
2022-12-17T09:42:06.464Z,-3276.40
2022-12-17T09:45:02.110Z,-3276.40
2022-12-17T09:47:58.587Z,-3276.40
2022-12-17T09:50:45.051Z,-3276.40
2022-12-17T09:53:40.737Z,-3276.50
2022-12-17T09:56:32.167Z,-3276.50
2022-12-17T09:59:18.930Z,-3276.50
2022-12-17T10:02:04.544Z,-3276.50
2022-12-17T10:04:53.718Z,-3276.60
2022-12-17T10:07:43.044Z,-3276.50
2022-12-17T10:10:36.203Z,-3276.40
2022-12-17T10:13:26.459Z,-3276.40
2022-12-17T10:16:13.220Z,-3276.40
2022-12-17T10:18:58.686Z,-3276.40
2022-12-17T10:21:49.644Z,-3276.40
2022-12-17T10:24:35.346Z,-3276.40
2022-12-17T10:27:27.994Z,-3276.40
2022-12-17T10:30:13.615Z,-3276.30
2022-12-17T10:33:00.877Z,-3276.30
2022-12-17T10:35:54.973Z,-3276.40
2022-12-17T10:38:42.102Z,-3276.40
2022-12-17T10:41:39.164Z,-3276.50
2022-12-17T10:44:39.720Z,-3276.50
2022-12-17T10:47:30.778Z,-3276.60
2022-12-17T10:54:08.701Z,-3276.50
2022-12-17T10:56:54.756Z,-3276.60
2022-12-17T10:59:51.834Z,-3276.60
2022-12-17T11:02:44.586Z,-3276.60
2022-12-17T11:05:32.920Z,-3276.60
2022-12-17T11:08:20.345Z,-3276.60
2022-12-17T11:11:07.911Z,-3276.60
2022-12-17T11:13:59.863Z,-3276.60
2022-12-17T11:16:48.379Z,-3276.60
2022-12-17T11:19:46.700Z,-3276.70
2022-12-17T11:22:41.494Z,-3276.70
2022-12-17T11:25:49.487Z,-3276.70
2022-12-17T11:28:41.419Z,0.00
2022-12-17T11:31:51.171Z,0.00
2022-12-17T11:34:46.215Z,0.00
2022-12-17T11:37:37.140Z,0.00
2022-12-17T11:40:35.006Z,0.00
2022-12-17T11:43:29.047Z,0.10
2022-12-17T11:46:27.718Z,0.20
2022-12-17T11:49:23.198Z,0.20
2022-12-17T11:52:16.643Z,0.20
2022-12-17T11:55:10.696Z,0.20
2022-12-17T11:58:04.861Z,0.20
2022-12-17T12:00:58.175Z,0.30
2022-12-17T12:03:57.972Z,0.40
2022-12-17T12:06:51.904Z,0.30
2022-12-17T12:09:46.436Z,0.20
2022-12-17T12:12:40.834Z,0.20
2022-12-17T12:19:30.618Z,0.20
2022-12-17T12:22:27.314Z,0.30
2022-12-17T12:25:27.439Z,0.30
2022-12-17T12:28:24.002Z,0.30
2022-12-17T12:31:18.828Z,0.30
2022-12-17T12:34:09.034Z,0.30
2022-12-17T12:36:59.275Z,0.50
2022-12-17T12:39:51.497Z,0.50
2022-12-17T12:42:50.007Z,0.60
2022-12-17T12:45:51.003Z,0.50
2022-12-17T12:48:50.606Z,0.50
2022-12-17T12:51:39.136Z,0.50
2022-12-17T12:57:19.123Z,0.50
2022-12-17T13:00:28.232Z,0.50
2022-12-17T13:03:13.781Z,0.40
2022-12-17T13:05:44.912Z,0.40
2022-12-17T13:08:41.776Z,0.40
2022-12-17T13:11:37.641Z,0.40
2022-12-17T13:14:13.829Z,0.40
2022-12-17T13:16:52.331Z,0.40
2022-12-17T13:19:32.490Z,0.40
2022-12-17T13:22:27.192Z,0.30
2022-12-17T13:24:56.908Z,0.30
2022-12-17T13:27:33.636Z,0.20
2022-12-17T13:30:22.964Z,0.10
2022-12-17T13:33:00.110Z,0.10
2022-12-17T13:35:37.137Z,0.10
2022-12-17T13:38:14.492Z,0.20
2022-12-17T13:40:44.720Z,0.10
2022-12-17T13:43:20.739Z,0.20
2022-12-17T13:45:51.326Z,0.10
2022-12-17T13:48:23.233Z,0.10
2022-12-17T13:50:54.875Z,0.10
2022-12-17T13:53:21.779Z,0.10
2022-12-17T13:55:51.509Z,0.00
2022-12-17T13:58:24.007Z,0.00
2022-12-17T14:01:03.272Z,0.00
2022-12-17T14:03:56.576Z,0.00
2022-12-17T14:06:17.245Z,0.00
2022-12-17T14:08:45.915Z,0.00
2022-12-17T14:11:31.603Z,0.00
2022-12-17T14:13:58.637Z,-3276.70
2022-12-17T14:16:27.196Z,-3276.70
2022-12-17T14:18:57.051Z,-3276.70
2022-12-17T14:21:26.292Z,-3276.60
2022-12-17T14:23:54.214Z,-3276.60
2022-12-17T14:26:21.494Z,-3276.50
2022-12-17T14:28:50.886Z,-3276.50
2022-12-17T14:31:29.050Z,-3276.50
2022-12-17T14:34:08.056Z,-3276.50
2022-12-17T14:36:36.716Z,-3276.50
2022-12-17T14:39:11.191Z,-3276.50
2022-12-17T14:41:57.724Z,-3276.40
2022-12-17T14:44:27.478Z,-3276.40
2022-12-17T14:47:08.582Z,-3276.30
2022-12-17T14:49:39.567Z,-3276.30
2022-12-17T14:52:13.441Z,-3276.30
2022-12-17T14:54:46.566Z,-3276.20
2022-12-17T14:57:20.895Z,-3276.20
2022-12-17T14:59:48.170Z,-3276.30
2022-12-17T15:02:23.786Z,-3276.20
2022-12-17T15:04:55.963Z,-3276.20
2022-12-17T15:07:28.970Z,-3276.20
2022-12-17T15:09:56.693Z,-3276.20
2022-12-17T15:12:25.009Z,-3276.10
2022-12-17T15:14:51.876Z,-3276.10
2022-12-17T15:17:18.818Z,-3276.10
2022-12-17T15:19:46.902Z,-3276.10
2022-12-17T15:22:17.602Z,-3276.10
2022-12-17T15:24:45.062Z,-3276.10
2022-12-17T15:27:13.437Z,-3276.10
2022-12-17T15:29:40.491Z,-3276.00
2022-12-17T15:32:17.082Z,-3276.00
2022-12-17T15:34:44.828Z,-3276.00
2022-12-17T15:37:11.717Z,-3276.00
2022-12-17T15:39:40.095Z,-3276.00
2022-12-17T15:42:25.627Z,-3275.90
2022-12-17T15:44:52.900Z,-3275.90
2022-12-17T15:47:19.702Z,-3275.90
2022-12-17T15:49:46.518Z,-3275.90
2022-12-17T15:52:15.145Z,-3276.00
2022-12-17T15:54:43.963Z,-3276.00
2022-12-17T15:57:16.815Z,-3276.00
2022-12-17T15:59:45.111Z,-3276.00
2022-12-17T16:02:12.211Z,-3276.00
2022-12-17T16:04:39.332Z,-3276.00
2022-12-17T16:07:06.820Z,-3276.10
2022-12-17T16:09:33.601Z,-3276.10
2022-12-17T16:12:01.756Z,-3276.10
2022-12-17T16:14:28.575Z,-3276.00
2022-12-17T16:16:55.407Z,-3276.00
2022-12-17T16:19:22.222Z,-3276.10
2022-12-17T16:21:49.213Z,-3276.00
2022-12-17T16:24:16.068Z,-3276.10
2022-12-17T16:26:43.180Z,-3276.00
2022-12-17T16:29:11.454Z,-3276.10
2022-12-17T16:31:38.389Z,-3276.10
2022-12-17T16:34:09.047Z,-3276.00
2022-12-17T16:36:36.492Z,-3276.00
2022-12-17T16:39:04.084Z,-3276.00
2022-12-17T16:41:31.297Z,-3275.80
2022-12-17T16:43:58.147Z,-3275.80
2022-12-17T16:46:29.079Z,-3275.80
2022-12-17T16:48:57.374Z,-3275.70
2022-12-17T16:51:29.250Z,-3275.80
2022-12-17T16:53:56.981Z,-3275.70
2022-12-17T16:56:27.161Z,-3275.70
2022-12-17T16:58:54.687Z,-3275.60
2022-12-17T17:01:23.425Z,-3275.60
2022-12-17T17:03:52.538Z,-3275.60
2022-12-17T17:06:20.017Z,-3275.50
2022-12-17T17:08:47.393Z,-3275.50
2022-12-17T17:11:16.748Z,-3275.60
2022-12-17T17:13:43.673Z,-3275.60
2022-12-17T17:16:10.895Z,-3275.50
2022-12-17T17:18:38.651Z,-3275.50
2022-12-17T17:21:24.054Z,-3275.40
2022-12-17T17:23:53.357Z,-3275.40
2022-12-17T17:26:24.135Z,-3275.30
2022-12-17T17:28:51.820Z,-3275.30
2022-12-17T17:31:19.683Z,-3275.30
2022-12-17T17:33:48.837Z,-3275.30
2022-12-17T17:36:20.766Z,-3275.30
2022-12-17T17:38:48.918Z,-3275.30
2022-12-17T17:41:18.814Z,-3275.30
2022-12-17T17:43:46.383Z,-3275.30
2022-12-17T17:46:15.321Z,-3275.30
2022-12-17T17:48:44.797Z,-3275.30
2022-12-17T17:51:14.735Z,-3275.30
2022-12-17T17:53:42.981Z,-3275.30
2022-12-17T17:56:15.035Z,-3275.30
2022-12-17T17:58:43.187Z,-3275.30
2022-12-17T18:01:10.987Z,-3275.30
2022-12-17T18:03:38.429Z,-3275.30
2022-12-17T18:06:07.256Z,-3275.20
2022-12-17T18:08:35.658Z,-3275.20
2022-12-17T18:11:06.227Z,-3275.20
2022-12-17T18:13:51.759Z,-3275.20
2022-12-17T18:16:19.516Z,-3275.20
2022-12-17T18:18:46.772Z,-3275.20
2022-12-17T18:21:15.315Z,-3275.20
2022-12-17T18:23:42.573Z,-3275.20
2022-12-17T18:26:13.487Z,-3275.20
2022-12-17T18:28:41.294Z,-3275.20
2022-12-17T18:31:10.085Z,-3275.10
2022-12-17T18:33:38.575Z,-3275.10
2022-12-17T18:36:09.868Z,-3275.10
2022-12-17T18:38:37.349Z,-3275.20
2022-12-17T18:41:30.220Z,-3275.20
2022-12-17T18:43:58.777Z,-3275.20
2022-12-17T18:46:26.243Z,-3275.10
2022-12-17T18:48:53.698Z,-3275.10
2022-12-17T18:51:21.823Z,-3275.10
2022-12-17T18:53:48.852Z,-3275.10
2022-12-17T18:56:37.987Z,-3275.10
2022-12-17T18:59:05.136Z,-3275.00
2022-12-17T19:01:35.092Z,-3275.10
2022-12-17T19:04:03.048Z,-3275.10
2022-12-17T19:06:31.271Z,-3275.00
2022-12-17T19:08:58.357Z,-3274.90
2022-12-17T19:11:26.803Z,-3274.90
2022-12-17T19:13:53.910Z,-3274.90
2022-12-17T19:16:23.207Z,-3274.80
2022-12-17T19:18:53.070Z,-3274.90
2022-12-17T19:21:20.887Z,-3274.90
2022-12-17T19:23:48.224Z,-3274.80
2022-12-17T19:26:17.741Z,-3274.80
2022-12-17T19:28:48.123Z,-3274.70
2022-12-17T19:31:16.214Z,-3274.80
2022-12-17T19:33:43.137Z,-3274.80
2022-12-17T19:36:13.106Z,-3274.80
2022-12-17T19:38:40.865Z,-3274.80
2022-12-17T19:41:09.626Z,-3274.80
2022-12-17T19:43:36.866Z,-3274.80
2022-12-17T19:46:08.144Z,-3274.80
2022-12-17T19:48:37.208Z,-3274.80
2022-12-17T19:51:05.592Z,-3274.80
2022-12-17T19:53:33.305Z,-3274.80
2022-12-17T19:56:10.766Z,-3274.80
2022-12-17T19:58:38.006Z,-3274.70
2022-12-17T20:01:07.907Z,-3274.70
2022-12-17T20:03:34.946Z,-3274.70
2022-12-17T20:06:02.000Z,-3274.70
2022-12-17T20:08:29.091Z,-3274.70
2022-12-17T20:10:56.174Z,-3274.70
2022-12-17T20:13:24.426Z,-3274.60
2022-12-17T20:15:59.864Z,-3274.60
2022-12-17T20:18:28.196Z,-3274.60
2022-12-17T20:21:01.940Z,-3274.50
2022-12-17T20:23:28.886Z,-3274.50
2022-12-17T20:26:02.038Z,-3274.50
2022-12-17T20:28:28.922Z,-3274.50
2022-12-17T20:30:58.126Z,-3274.50
2022-12-17T20:33:25.124Z,-3274.60
2022-12-17T20:35:53.784Z,-3274.60
2022-12-17T20:38:20.994Z,-3274.60
2022-12-17T20:40:48.557Z,-3274.60
2022-12-17T20:43:16.151Z,-3274.70
2022-12-17T20:45:48.459Z,-3274.70
2022-12-17T20:48:15.978Z,-3274.70
2022-12-17T20:50:43.086Z,-3274.70
2022-12-17T20:53:11.529Z,-3274.70
2022-12-17T20:55:38.373Z,-3274.70
2022-12-17T20:58:05.286Z,-3274.80
2022-12-17T21:00:32.256Z,-3274.80
2022-12-17T21:02:59.287Z,-3274.80
2022-12-17T21:05:26.856Z,-3274.80
2022-12-17T21:07:53.943Z,-3274.70
2022-12-17T21:10:31.213Z,-3274.70
2022-12-17T21:13:16.699Z,-3274.70
2022-12-17T21:15:49.017Z,-3274.70
2022-12-17T21:18:15.933Z,-3274.70
2022-12-17T21:20:42.859Z,-3274.60
2022-12-17T21:23:09.857Z,-3274.60
2022-12-17T21:25:38.776Z,-3274.60
2022-12-17T21:28:05.636Z,-3274.60
2022-12-17T21:30:39.524Z,-3274.60
2022-12-17T21:33:06.378Z,-3274.60
2022-12-17T21:35:33.471Z,-3274.50
2022-12-17T21:38:00.518Z,-3274.50
2022-12-17T21:40:27.406Z,-3274.50
2022-12-17T21:43:01.767Z,-3274.60
2022-12-17T21:45:33.526Z,-3274.60
2022-12-17T21:48:00.576Z,-3274.60
2022-12-17T21:50:27.466Z,-3274.60
2022-12-17T21:52:54.293Z,-3274.60
2022-12-17T21:55:21.140Z,-3274.60
2022-12-17T21:57:48.033Z,-3274.60
2022-12-17T22:00:17.811Z,-3274.60
2022-12-17T22:02:44.931Z,-3274.60
2022-12-17T22:05:17.594Z,-3274.50
2022-12-17T22:07:49.362Z,-3274.50
2022-12-17T22:10:47.820Z,-3274.50
2022-12-17T22:13:36.640Z,-3274.50
2022-12-17T22:16:07.732Z,-3274.50
2022-12-17T22:18:34.647Z,-3274.50
2022-12-17T22:21:02.527Z,-3274.50
2022-12-17T22:23:29.543Z,-3274.50
2022-12-17T22:25:56.856Z,-3274.50
2022-12-17T22:28:23.621Z,-3274.50
2022-12-17T22:31:10.916Z,-3274.50
2022-12-17T22:34:18.420Z,-3274.40
2022-12-17T22:39:04.773Z,-3274.40
2022-12-17T22:41:43.102Z,-3274.40
2022-12-17T22:44:42.204Z,-3274.40
2022-12-17T22:45:11.340Z,-3274.40
2022-12-17T22:47:39.422Z,-3274.30
2022-12-17T22:50:08.364Z,-3274.30
2022-12-17T22:52:35.887Z,-3274.40
2022-12-17T22:55:03.899Z,-3274.40
2022-12-17T22:57:37.416Z,-3274.40
2022-12-17T23:00:09.854Z,-3274.40
2022-12-17T23:02:36.893Z,-3274.40
2022-12-17T23:05:03.998Z,-3274.40
2022-12-17T23:07:32.274Z,-3274.40
2022-12-17T23:09:59.208Z,-3274.40
2022-12-17T23:12:44.575Z,-3274.30
2022-12-17T23:15:12.267Z,-3274.30
2022-12-17T23:17:39.143Z,-3274.30
2022-12-17T23:20:06.845Z,-3274.30
2022-12-17T23:22:35.073Z,-3274.30
2022-12-17T23:25:02.010Z,-3274.30
2022-12-17T23:27:28.868Z,-3274.20
2022-12-17T23:29:55.742Z,-3274.20
2022-12-17T23:32:22.888Z,-3274.20
2022-12-17T23:34:52.149Z,-3274.20
2022-12-17T23:37:19.136Z,-3274.20
2022-12-17T23:39:47.355Z,-3274.20
2022-12-17T23:42:14.158Z,-3274.20
2022-12-17T23:44:41.026Z,-3274.20
2022-12-17T23:47:07.991Z,-3274.30
2022-12-17T23:49:34.841Z,-3274.30
2022-12-17T23:52:01.740Z,-3274.30
2022-12-17T23:54:28.730Z,-3274.30
2022-12-17T23:56:56.918Z,-3274.30
2022-12-17T23:59:24.039Z,-3274.20
